Emmen, Emmen Air Base (LSME)

NameEmmen Air Base
CityEmmen
CountrySwitzerland
ICAOLSME
IATAEML
Altitude426 m
CoordinatesGoogle Map
Live Air TrafficLiveATC.net
METARLSME 161650Z AUTO 01001KT 3000NDV BR SCT005 OVC046 01/01 Q1014 RMK
2018-12-16 16:50:00 Wind: North (10°) 0.51 m/s - Visibility: 3000 m - Weather: Mist - Temperature: 1 °C - Dew point: 1 °C - Humidity: 100% - Pressure: 1014 hPa

Sorry, no flights used the airport in this database.